createdAt,value
2018-08-18T00:00:15.958Z,25.4
2018-08-18T00:01:06.254Z,25.4
2018-08-18T00:01:56.068Z,25.4
2018-08-18T00:02:46.152Z,25.4
2018-08-18T00:03:35.942Z,25.4
2018-08-18T00:04:25.986Z,25.4
2018-08-18T00:05:16.333Z,25.4
2018-08-18T00:06:06.405Z,25.4
2018-08-18T00:06:56.470Z,25.4
2018-08-18T00:07:46.531Z,25.4
2018-08-18T00:08:36.603Z,25.5
2018-08-18T00:09:26.381Z,25.5
2018-08-18T00:10:16.784Z,25.5
2018-08-18T00:11:06.506Z,25.4
2018-08-18T00:11:56.883Z,25.4
2018-08-18T00:12:46.920Z,25.5
2018-08-18T00:13:36.978Z,25.4
2018-08-18T00:14:27.045Z,25.5
2018-08-18T00:15:16.838Z,25.4
2018-08-18T00:16:07.172Z,25.5
2018-08-18T00:16:57.229Z,25.5
2018-08-18T00:17:47.023Z,25.4
2018-08-18T00:18:37.072Z,25.4
2018-08-18T00:37:30.330Z,25.5
2018-08-18T00:38:20.390Z,25.5
2018-08-18T00:39:10.464Z,25.5
2018-08-18T00:40:00.226Z,25.5
2018-08-18T00:40:50.566Z,25.5
2018-08-18T00:41:40.640Z,25.5
2018-08-18T00:42:30.123Z,25.4
2018-08-18T00:43:20.758Z,25.4
2018-08-18T00:44:10.821Z,25.5
2018-08-18T00:45:00.885Z,25.5
2018-08-18T00:45:50.955Z,25.5
2018-08-18T00:46:41.034Z,25.5
2018-08-18T00:47:31.081Z,25.5
2018-08-18T00:48:21.171Z,25.5
2018-08-18T00:49:11.221Z,25.5
2018-08-18T00:50:00.992Z,25.5
2018-08-18T00:50:51.406Z,25.5
2018-08-18T00:51:41.408Z,25.5
2018-08-18T00:52:31.469Z,25.5
2018-08-18T00:53:21.542Z,25.4
2018-08-18T00:54:11.643Z,25.5
2018-08-18T00:55:01.694Z,25.4
2018-08-18T00:55:51.731Z,25.5
2018-08-18T00:56:41.807Z,25.5
2018-08-18T00:57:31.574Z,25.5
2018-08-18T00:58:21.914Z,25.5
2018-08-18T00:59:11.985Z,25.5
2018-08-18T01:00:02.047Z,25.5
2018-08-18T01:00:51.821Z,25.5
2018-08-18T01:01:42.169Z,25.5
2018-08-18T01:02:31.963Z,25.5
2018-08-18T01:03:22.299Z,25.5
2018-08-18T01:04:12.084Z,25.5
2018-08-18T01:05:02.455Z,25.5
2018-08-18T01:05:52.499Z,25.5
2018-08-18T01:06:42.271Z,25.5
2018-08-18T01:07:32.333Z,25.5
2018-08-18T01:08:22.678Z,25.5
2018-08-18T01:09:12.739Z,25.5
2018-08-18T01:10:02.814Z,25.5
2018-08-18T01:10:53.082Z,25.4
2018-08-18T01:11:43.719Z,25.5
2018-08-18T01:12:33.963Z,25.5
2018-08-18T01:13:22.840Z,25.5
2018-08-18T01:14:13.495Z,25.5
2018-08-18T01:15:03.287Z,25.5
2018-08-18T01:15:53.108Z,25.5
2018-08-18T01:16:43.344Z,25.5
2018-08-18T01:17:33.097Z,25.5
2018-08-18T01:18:23.459Z,25.5
2018-08-18T01:19:13.515Z,25.5
2018-08-18T01:20:03.312Z,25.5
2018-08-18T01:20:53.666Z,25.5
2018-08-18T01:21:43.722Z,25.5
2018-08-18T01:22:33.502Z,25.5
2018-08-18T01:23:23.840Z,25.5
2018-08-18T01:24:13.913Z,25.5
2018-08-18T01:25:03.981Z,25.5
2018-08-18T01:25:54.042Z,25.5
2018-08-18T01:26:43.812Z,25.5
2018-08-18T01:27:34.166Z,25.5
2018-08-18T01:28:24.240Z,25.5
2018-08-18T01:29:14.018Z,25.5
2018-08-18T01:30:04.367Z,25.5
2018-08-18T01:30:54.432Z,25.5
2018-08-18T01:31:44.206Z,25.5
2018-08-18T01:32:34.557Z,25.5
2018-08-18T01:33:24.616Z,25.4
2018-08-18T01:34:14.695Z,25.5
2018-08-18T01:35:04.754Z,25.5
2018-08-18T01:35:54.820Z,25.5
2018-08-18T01:36:44.875Z,25.5
2018-08-18T01:37:34.658Z,25.5
2018-08-18T01:38:24.719Z,25.4
2018-08-18T01:39:15.062Z,25.5
2018-08-18T01:40:04.832Z,25.5
2018-08-18T01:40:55.199Z,25.5
2018-08-18T01:41:44.965Z,25.5
2018-08-18T01:42:35.306Z,25.5
2018-08-18T01:43:25.092Z,25.5
2018-08-18T01:44:15.448Z,25.5
2018-08-18T01:45:05.517Z,25.5
2018-08-18T01:45:55.563Z,25.5
2018-08-18T01:46:45.354Z,25.5
2018-08-18T01:47:35.696Z,25.5
2018-08-18T01:48:25.770Z,25.5
2018-08-18T01:49:15.834Z,25.5
2018-08-18T01:50:05.884Z,25.5
2018-08-18T01:50:55.667Z,25.5
2018-08-18T01:51:46.019Z,25.5
2018-08-18T01:52:36.082Z,25.5
2018-08-18T01:53:26.157Z,25.5
2018-08-18T01:54:16.222Z,25.5
2018-08-18T01:55:06.283Z,25.5
2018-08-18T01:55:56.345Z,25.5
2018-08-18T01:56:46.135Z,25.5
2018-08-18T01:57:36.477Z,25.5
2018-08-18T01:58:26.542Z,25.5
2018-08-18T01:59:16.612Z,25.5
2018-08-18T02:00:06.388Z,25.5
2018-08-18T02:00:56.729Z,25.5
2018-08-18T02:01:46.791Z,25.5
2018-08-18T02:02:36.873Z,25.4
2018-08-18T02:03:26.920Z,25.5
2018-08-18T02:04:16.721Z,25.5
2018-08-18T02:05:07.048Z,25.5
2018-08-18T02:05:57.133Z,25.5
2018-08-18T02:06:46.892Z,25.5
2018-08-18T02:07:37.249Z,25.5
2018-08-18T02:08:27.305Z,25.5
2018-08-18T02:09:17.373Z,25.5
2018-08-18T02:10:07.167Z,25.5
2018-08-18T02:10:57.517Z,25.5
2018-08-18T02:11:47.567Z,25.5
2018-08-18T02:12:37.641Z,25.5
2018-08-18T02:13:27.697Z,25.5
2018-08-18T02:14:17.491Z,25.5
2018-08-18T02:15:07.549Z,25.5
2018-08-18T02:15:57.892Z,25.5
2018-08-18T02:16:47.938Z,25.5
2018-08-18T02:17:38.015Z,25.5
2018-08-18T02:18:28.069Z,25.5
2018-08-18T02:19:17.862Z,25.5
2018-08-18T02:20:08.599Z,25.5
2018-08-18T02:20:58.267Z,25.5
2018-08-18T02:21:48.327Z,25.5
2018-08-18T02:22:38.403Z,25.5
2018-08-18T02:23:28.451Z,25.5
2018-08-18T02:24:18.552Z,25.5
2018-08-18T02:25:08.302Z,25.5
2018-08-18T02:25:58.651Z,25.5
2018-08-18T02:26:48.728Z,25.4
2018-08-18T02:27:38.790Z,25.5
2018-08-18T02:28:28.856Z,25.5
2018-08-18T02:29:18.906Z,25.5
2018-08-18T02:30:08.984Z,25.5
2018-08-18T02:30:58.745Z,25.5
2018-08-18T02:31:49.106Z,25.4
2018-08-18T02:32:39.168Z,25.5
2018-08-18T02:33:29.231Z,25.4
2018-08-18T02:34:19.294Z,25.5
2018-08-18T02:35:09.097Z,25.5
2018-08-18T02:35:59.139Z,25.5
2018-08-18T02:36:49.507Z,25.5
2018-08-18T02:37:39.571Z,25.5
2018-08-18T02:38:29.387Z,25.5
2018-08-18T02:39:19.692Z,25.5
2018-08-18T02:40:10.125Z,25.5
2018-08-18T02:40:59.522Z,25.5
2018-08-18T02:41:49.882Z,25.5
2018-08-18T02:42:39.958Z,25.5
2018-08-18T02:43:29.724Z,25.5
2018-08-18T02:44:20.075Z,25.5
2018-08-18T02:45:09.848Z,25.5
2018-08-18T02:46:00.198Z,25.5
2018-08-18T02:46:50.288Z,25.5
2018-08-18T02:47:40.322Z,25.5
2018-08-18T02:48:30.395Z,25.5
2018-08-18T02:49:20.454Z,25.5
2018-08-18T02:50:10.521Z,25.5
2018-08-18T02:51:00.584Z,25.5
2018-08-18T02:51:50.661Z,25.5
2018-08-18T02:52:40.690Z,25.5
2018-08-18T02:53:30.781Z,25.5
2018-08-18T02:54:20.825Z,25.5
2018-08-18T02:55:10.890Z,25.5
2018-08-18T02:56:00.973Z,25.5
2018-08-18T02:56:51.030Z,25.5
2018-08-18T02:57:41.201Z,25.5
2018-08-18T02:58:31.153Z,25.5
2018-08-18T02:59:21.240Z,25.5
2018-08-18T03:00:11.293Z,25.5
2018-08-18T03:01:01.338Z,25.5
2018-08-18T03:01:51.400Z,25.5
2018-08-18T03:02:41.477Z,25.5
2018-08-18T03:03:31.537Z,25.5
2018-08-18T03:04:21.597Z,25.5
2018-08-18T03:05:11.662Z,25.5
2018-08-18T03:06:01.725Z,25.5
2018-08-18T03:06:51.798Z,25.5
2018-08-18T03:07:41.926Z,25.4
2018-08-18T03:08:31.647Z,25.5
2018-08-18T03:09:22.004Z,25.5
2018-08-18T03:10:12.064Z,25.5
2018-08-18T03:11:01.845Z,25.5
2018-08-18T03:11:52.183Z,25.5
2018-08-18T03:12:41.960Z,25.5
2018-08-18T03:13:32.308Z,25.5
2018-08-18T03:14:22.104Z,25.5
2018-08-18T03:15:12.439Z,25.5
2018-08-18T03:16:02.225Z,25.5
2018-08-18T03:16:52.276Z,25.5
2018-08-18T03:17:42.641Z,25.5
2018-08-18T03:18:32.711Z,25.5
2018-08-18T03:19:22.476Z,25.5
2018-08-18T03:20:12.835Z,25.5
2018-08-18T03:21:02.616Z,25.5
2018-08-18T03:21:52.962Z,25.5
2018-08-18T03:22:42.737Z,25.5
2018-08-18T03:23:33.080Z,25.5
2018-08-18T03:24:23.173Z,25.5
2018-08-18T03:25:13.229Z,25.5
2018-08-18T03:26:03.272Z,25.5
2018-08-18T03:26:53.343Z,25.5
2018-08-18T03:27:43.399Z,25.5
2018-08-18T03:28:33.183Z,25.5
2018-08-18T03:29:23.235Z,25.5
2018-08-18T03:30:13.589Z,25.5
2018-08-18T03:31:03.373Z,25.5
2018-08-18T03:31:53.428Z,25.4
2018-08-18T03:32:43.490Z,25.5
2018-08-18T03:33:33.846Z,25.5
2018-08-18T03:34:23.906Z,25.5
2018-08-18T03:35:13.973Z,25.5
2018-08-18T03:36:03.753Z,25.5
2018-08-18T03:36:54.112Z,25.5
2018-08-18T03:37:44.150Z,25.5
2018-08-18T03:38:33.954Z,25.5
2018-08-18T03:39:24.288Z,25.5
2018-08-18T03:40:14.062Z,25.5
2018-08-18T03:41:04.430Z,25.5
2018-08-18T03:41:54.487Z,25.5
2018-08-18T03:42:44.545Z,25.5
2018-08-18T03:43:34.614Z,25.5
2018-08-18T03:44:24.670Z,25.5
2018-08-18T03:45:14.739Z,25.5
2018-08-18T03:46:04.537Z,25.5
2018-08-18T03:46:54.876Z,25.5
2018-08-18T03:47:44.944Z,25.5
2018-08-18T03:48:35.005Z,25.5
2018-08-18T03:49:25.074Z,25.5
2018-08-18T03:50:15.136Z,25.5
2018-08-18T03:51:05.189Z,25.5
2018-08-18T03:51:55.269Z,25.5
2018-08-18T03:52:45.346Z,25.5
2018-08-18T03:53:35.383Z,25.5
2018-08-18T03:54:25.468Z,25.5
2018-08-18T03:55:15.541Z,25.5
2018-08-18T03:56:05.579Z,25.5
2018-08-18T03:56:55.635Z,25.5
2018-08-18T03:57:45.703Z,25.5
2018-08-18T03:58:35.782Z,25.5
2018-08-18T03:59:25.567Z,25.5
2018-08-18T04:00:15.615Z,25.5
2018-08-18T04:01:05.685Z,25.5
2018-08-18T04:01:56.370Z,25.5
2018-08-18T04:02:46.099Z,25.5
2018-08-18T04:03:36.158Z,25.5
2018-08-18T04:04:26.229Z,25.5
2018-08-18T04:05:15.967Z,25.5
2018-08-18T04:06:06.341Z,25.5
2018-08-18T04:06:56.415Z,25.5
2018-08-18T04:07:46.186Z,25.5
2018-08-18T04:08:36.543Z,25.5
2018-08-18T04:09:26.963Z,25.5
2018-08-18T04:10:16.656Z,25.5
2018-08-18T04:11:06.487Z,25.5
2018-08-18T04:11:56.805Z,25.5
2018-08-18T04:12:46.871Z,25.5
2018-08-18T04:13:36.923Z,25.5
2018-08-18T04:14:26.982Z,25.5
2018-08-18T04:15:16.759Z,25.5
2018-08-18T04:16:06.837Z,25.5
2018-08-18T04:16:56.883Z,25.5
2018-08-18T04:17:47.049Z,25.5
2018-08-18T04:18:37.294Z,25.5
2018-08-18T04:19:27.364Z,25.5
2018-08-18T04:20:17.452Z,25.5
2018-08-18T04:21:07.516Z,25.5
2018-08-18T04:21:57.288Z,25.5
2018-08-18T04:22:47.352Z,25.5
2018-08-18T04:23:37.401Z,25.6
2018-08-18T04:24:27.751Z,25.5
2018-08-18T04:25:17.970Z,25.5
2018-08-18T04:26:07.887Z,25.5
2018-08-18T04:26:57.668Z,25.6
2018-08-18T04:27:48.084Z,25.6
2018-08-18T04:28:38.085Z,25.6
2018-08-18T04:29:28.135Z,25.6
2018-08-18T04:30:18.233Z,25.7
2018-08-18T04:31:08.269Z,25.7
2018-08-18T04:31:58.343Z,25.7
2018-08-18T04:32:48.447Z,25.8
2018-08-18T04:33:38.485Z,25.8
2018-08-18T04:34:28.523Z,25.8
2018-08-18T04:35:18.391Z,25.8
2018-08-18T04:36:08.651Z,25.8
2018-08-18T04:36:58.733Z,25.9
2018-08-18T04:37:48.503Z,25.9
2018-08-18T04:38:38.563Z,25.9
2018-08-18T04:39:28.897Z,25.9
2018-08-18T04:40:18.687Z,25.9
2018-08-18T04:41:08.745Z,25.9
2018-08-18T04:41:59.100Z,25.9
2018-08-18T04:42:49.156Z,25.9
2018-08-18T04:43:39.245Z,25.9
2018-08-18T04:44:29.288Z,25.9
2018-08-18T04:45:19.064Z,25.9
2018-08-18T04:46:09.418Z,25.8
2018-08-18T04:46:59.517Z,25.8
2018-08-18T04:47:49.550Z,25.8
2018-08-18T04:48:39.611Z,25.8
2018-08-18T05:06:48.234Z,25.4
2018-08-18T05:07:38.245Z,25.4
2018-08-18T05:08:28.311Z,25.4
2018-08-18T05:09:18.386Z,25.4
2018-08-18T05:10:08.430Z,25.4
2018-08-18T05:10:58.506Z,25.4
2018-08-18T05:11:48.807Z,25.4
2018-08-18T05:12:38.613Z,25.4
2018-08-18T05:13:28.680Z,25.4
2018-08-18T05:14:18.463Z,25.4
2018-08-18T05:15:08.815Z,25.4
2018-08-18T05:15:58.607Z,25.4
2018-08-18T05:16:48.756Z,25.4
2018-08-18T05:17:38.720Z,25.4
2018-08-18T05:18:28.507Z,25.4
2018-08-18T05:19:19.488Z,25.4
2018-08-18T05:20:09.204Z,25.4
2018-08-18T05:20:59.261Z,25.4
2018-08-18T05:21:49.335Z,25.4
2018-08-18T05:22:39.396Z,25.4
2018-08-18T05:23:29.454Z,25.3
2018-08-18T05:24:19.242Z,25.4
2018-08-18T05:25:09.305Z,25.3
2018-08-18T05:25:59.649Z,25.3
2018-08-18T05:26:49.423Z,25.4
2018-08-18T05:27:39.784Z,25.4
2018-08-18T05:28:29.560Z,25.3
2018-08-18T05:29:19.616Z,25.3
2018-08-18T05:30:09.984Z,25.3
2018-08-18T05:30:59.748Z,25.3
2018-08-18T05:31:50.108Z,25.3
2018-08-18T05:32:40.167Z,25.3
2018-08-18T05:33:30.216Z,25.3
2018-08-18T05:34:20.278Z,25.3
2018-08-18T05:35:10.338Z,25.3
2018-08-18T05:36:00.432Z,25.3
2018-08-18T05:36:50.185Z,25.3
2018-08-18T05:37:40.540Z,25.3
2018-08-18T05:38:30.610Z,25.3
2018-08-18T05:39:20.669Z,25.3
2018-08-18T05:40:10.722Z,25.3
2018-08-18T05:41:00.788Z,25.3
2018-08-18T05:41:50.850Z,25.3
2018-08-18T05:42:40.921Z,25.3
2018-08-18T05:43:30.993Z,25.4
2018-08-18T05:44:20.766Z,25.3
2018-08-18T05:45:11.119Z,25.3
2018-08-18T05:46:00.884Z,25.4
2018-08-18T05:46:51.231Z,25.4
2018-08-18T05:47:41.559Z,25.4
2018-08-18T05:48:31.373Z,25.4
2018-08-18T05:49:21.426Z,25.4
2018-08-18T05:50:11.493Z,25.4
2018-08-18T05:51:01.556Z,25.4
2018-08-18T05:51:51.631Z,25.4
2018-08-18T05:52:41.693Z,25.4
2018-08-18T05:53:31.563Z,25.4
2018-08-18T05:54:21.545Z,25.4
2018-08-18T05:55:11.881Z,25.4
2018-08-18T05:56:01.664Z,25.4
2018-08-18T05:56:52.011Z,25.4
2018-08-18T05:57:41.804Z,25.4
2018-08-18T05:58:32.145Z,25.4
2018-08-18T05:59:22.230Z,25.5
2018-08-18T06:00:12.271Z,25.5
2018-08-18T06:01:02.058Z,25.4
2018-08-18T06:01:52.122Z,25.5
2018-08-18T06:02:42.460Z,25.5
2018-08-18T06:03:32.536Z,25.5
2018-08-18T06:04:22.601Z,25.5
2018-08-18T06:05:12.373Z,25.5
2018-08-18T06:06:02.721Z,25.5
2018-08-18T06:06:52.505Z,25.5
2018-08-18T06:07:42.554Z,25.5
2018-08-18T06:08:32.919Z,25.5
2018-08-18T06:09:22.974Z,25.5
2018-08-18T06:10:13.029Z,25.5
2018-08-18T06:11:03.094Z,25.5
2018-08-18T06:11:52.869Z,25.5
2018-08-18T06:12:43.249Z,25.5
2018-08-18T06:13:33.299Z,25.5
2018-08-18T06:14:23.343Z,25.5
2018-08-18T06:15:13.436Z,25.5
2018-08-18T06:16:03.478Z,25.5
2018-08-18T06:16:53.253Z,25.5
2018-08-18T06:17:43.312Z,25.5
2018-08-18T06:18:33.682Z,25.5
2018-08-18T06:19:23.741Z,25.6
2018-08-18T06:20:13.535Z,25.5
2018-08-18T06:21:03.864Z,25.5
2018-08-18T06:21:53.445Z,25.5
2018-08-18T06:22:44.005Z,25.6
2018-08-18T06:23:34.068Z,25.5
2018-08-18T06:24:24.120Z,25.6
2018-08-18T06:25:14.178Z,25.6
2018-08-18T06:26:04.259Z,25.6
2018-08-18T06:26:54.322Z,25.6
2018-08-18T06:27:44.107Z,25.6
2018-08-18T06:28:34.167Z,25.6
2018-08-18T06:29:24.505Z,25.6
2018-08-18T06:30:14.013Z,25.6
2018-08-18T06:31:04.651Z,25.6
2018-08-18T06:31:54.702Z,25.6
2018-08-18T06:32:44.206Z,25.6
2018-08-18T06:33:34.833Z,25.6
2018-08-18T06:34:24.936Z,25.6
2018-08-18T06:35:14.982Z,25.6
2018-08-18T06:36:04.749Z,25.6
2018-08-18T06:36:55.093Z,25.6
2018-08-18T06:37:45.159Z,25.6
2018-08-18T06:38:34.933Z,25.6
2018-08-18T06:39:25.284Z,25.6
2018-08-18T06:40:15.352Z,25.6
2018-08-18T06:41:05.707Z,25.6
2018-08-18T06:41:55.973Z,25.6
2018-08-18T06:42:45.623Z,25.6
2018-08-18T06:43:35.594Z,25.6
2018-08-18T06:44:25.675Z,25.6
2018-08-18T06:45:15.720Z,25.6
2018-08-18T06:46:05.803Z,25.6
2018-08-18T06:46:55.849Z,25.6
2018-08-18T06:47:45.924Z,25.6
2018-08-18T06:48:35.701Z,25.6
2018-08-18T06:49:26.044Z,25.6
2018-08-18T06:50:16.121Z,25.6
2018-08-18T06:51:05.888Z,25.6
2018-08-18T06:51:56.232Z,25.6
2018-08-18T06:52:46.299Z,25.6
2018-08-18T06:53:36.100Z,25.6
2018-08-18T06:54:26.770Z,25.6
2018-08-18T06:55:17.502Z,25.6
2018-08-18T06:56:06.568Z,25.6
2018-08-18T06:56:56.737Z,25.6
2018-08-18T06:57:46.429Z,25.6
2018-08-18T06:58:36.763Z,25.6
2018-08-18T06:59:26.817Z,25.6
2018-08-18T07:00:16.898Z,25.6
2018-08-18T07:01:06.958Z,25.6
2018-08-18T07:01:57.023Z,25.6
2018-08-18T07:02:46.808Z,25.6
2018-08-18T07:03:37.012Z,25.6
2018-08-18T07:04:27.216Z,25.6
2018-08-18T07:05:17.287Z,25.6
2018-08-18T07:06:07.350Z,25.6
2018-08-18T07:06:57.404Z,25.6
2018-08-18T07:07:47.474Z,25.6
2018-08-18T07:08:37.532Z,25.6
2018-08-18T07:09:27.616Z,25.6
2018-08-18T07:10:17.679Z,25.6
2018-08-18T07:11:07.742Z,25.6
2018-08-18T07:11:57.808Z,25.6
2018-08-18T07:12:47.584Z,25.6
2018-08-18T07:13:37.656Z,25.6
2018-08-18T07:14:27.703Z,25.6
2018-08-18T07:15:17.785Z,25.6
2018-08-18T07:16:07.838Z,25.6
2018-08-18T07:16:58.176Z,25.6
2018-08-18T07:17:48.237Z,25.6
2018-08-18T07:18:38.353Z,25.6
2018-08-18T07:19:28.711Z,25.6
2018-08-18T07:20:18.449Z,25.6
2018-08-18T07:21:07.924Z,25.6
2018-08-18T07:21:58.568Z,25.7
2018-08-18T07:22:48.640Z,25.6
2018-08-18T07:23:38.695Z,25.7
2018-08-18T07:24:28.762Z,25.7
2018-08-18T07:25:18.819Z,25.6
2018-08-18T07:26:08.901Z,25.6
2018-08-18T07:26:58.941Z,25.7
2018-08-18T07:27:49.019Z,25.7
2018-08-18T07:28:39.288Z,25.6
2018-08-18T07:29:29.147Z,25.6
2018-08-18T07:30:19.204Z,25.6
2018-08-18T07:31:09.269Z,25.7
2018-08-18T07:31:59.052Z,25.7
2018-08-18T07:32:49.415Z,25.7
2018-08-18T07:33:39.531Z,25.7
2018-08-18T07:34:29.530Z,25.7
2018-08-18T07:35:19.588Z,25.6
2018-08-18T07:36:09.664Z,25.7
2018-08-18T07:36:59.851Z,25.7
2018-08-18T07:37:49.814Z,25.7
2018-08-18T07:38:39.874Z,25.7
2018-08-18T07:39:29.647Z,25.7
2018-08-18T07:40:19.988Z,25.7
2018-08-18T07:41:09.779Z,25.7
2018-08-18T07:42:00.129Z,25.7
2018-08-18T07:42:50.208Z,25.7
2018-08-18T07:43:39.971Z,25.7
2018-08-18T07:44:30.323Z,25.7
2018-08-18T07:45:20.383Z,25.7
2018-08-18T07:46:10.521Z,25.7
2018-08-18T07:47:00.511Z,25.7
2018-08-18T07:47:50.570Z,25.7
2018-08-18T07:48:40.646Z,25.7
2018-08-18T07:49:30.709Z,25.7
2018-08-18T07:50:20.770Z,25.7
2018-08-18T07:51:10.542Z,25.7
2018-08-18T07:52:00.893Z,25.7
2018-08-18T07:52:50.960Z,25.7
2018-08-18T07:53:41.146Z,25.7
2018-08-18T07:54:31.079Z,25.7
2018-08-18T07:55:20.875Z,25.7
2018-08-18T07:56:11.199Z,25.7
2018-08-18T07:57:01.267Z,25.7
2018-08-18T07:57:51.050Z,25.8
2018-08-18T07:58:41.416Z,25.8
2018-08-18T07:59:31.467Z,25.7
2018-08-18T08:00:21.543Z,25.7
2018-08-18T08:01:11.612Z,25.8
2018-08-18T08:02:01.663Z,25.8
2018-08-18T08:02:51.455Z,25.8
2018-08-18T08:03:41.790Z,25.8
2018-08-18T08:04:31.848Z,25.8
2018-08-18T08:05:21.683Z,25.8
2018-08-18T08:06:11.987Z,25.8
2018-08-18T08:07:02.062Z,25.8
2018-08-18T08:07:51.845Z,25.8
2018-08-18T08:08:42.197Z,25.8
2018-08-18T08:09:31.965Z,25.8
2018-08-18T08:10:22.304Z,25.8
2018-08-18T08:11:12.093Z,25.8
2018-08-18T08:12:02.461Z,25.8
2018-08-18T08:12:52.732Z,25.8
2018-08-18T08:13:42.565Z,25.8
2018-08-18T08:14:32.636Z,25.8
2018-08-18T08:15:22.714Z,25.8
2018-08-18T08:16:12.769Z,25.8
2018-08-18T08:17:02.561Z,25.8
2018-08-18T08:17:52.616Z,25.8
2018-08-18T08:18:42.967Z,25.8
2018-08-18T08:19:33.029Z,25.8
2018-08-18T08:20:23.097Z,25.8
2018-08-18T08:21:13.173Z,25.8
2018-08-18T08:22:03.232Z,25.8
2018-08-18T08:22:53.288Z,25.8
2018-08-18T08:23:43.354Z,25.8
2018-08-18T08:24:33.432Z,25.8
2018-08-18T08:25:23.486Z,25.8
2018-08-18T08:26:13.565Z,25.8
2018-08-18T08:27:03.609Z,25.8
2018-08-18T08:27:53.686Z,25.8
2018-08-18T08:28:43.749Z,25.8
2018-08-18T08:29:34.024Z,25.8
2018-08-18T08:30:23.871Z,25.8
2018-08-18T08:31:13.934Z,25.8
2018-08-18T08:32:03.987Z,25.8
2018-08-18T08:32:54.064Z,25.8
2018-08-18T08:33:43.842Z,25.8
2018-08-18T08:34:34.204Z,25.8
2018-08-18T08:35:23.967Z,25.9
2018-08-18T08:36:14.034Z,25.8
2018-08-18T08:37:04.386Z,25.8
2018-08-18T08:37:54.164Z,25.8
2018-08-18T08:38:44.523Z,25.8
2018-08-18T08:39:34.594Z,25.8
2018-08-18T08:40:24.379Z,25.8
2018-08-18T08:41:14.722Z,25.8
2018-08-18T08:42:04.776Z,25.8
2018-08-18T08:42:55.186Z,25.8
2018-08-18T08:43:44.905Z,25.8
2018-08-18T08:44:34.969Z,25.9
2018-08-18T08:45:25.438Z,25.9
2018-08-18T08:46:14.908Z,25.8
2018-08-18T08:47:04.887Z,25.8
2018-08-18T08:47:55.240Z,25.9
2018-08-18T08:48:45.015Z,25.9
2018-08-18T08:49:35.608Z,25.8
2018-08-18T08:50:25.488Z,25.8
2018-08-18T08:51:15.500Z,25.8
2018-08-18T08:52:05.571Z,25.8
2018-08-18T08:52:55.626Z,25.8
2018-08-18T08:53:45.789Z,25.9
2018-08-18T08:54:35.976Z,25.9
2018-08-18T08:55:25.254Z,25.9
2018-08-18T08:56:15.611Z,25.9
2018-08-18T08:57:06.159Z,25.9
2018-08-18T08:57:56.015Z,25.9
2018-08-18T08:58:46.202Z,25.9
2018-08-18T08:59:36.464Z,25.9
2018-08-18T09:00:26.215Z,25.9
2018-08-18T09:01:16.290Z,25.9
2018-08-18T09:02:06.406Z,25.9
2018-08-18T09:02:56.144Z,25.9
2018-08-18T09:03:46.434Z,25.9
2018-08-18T09:04:36.535Z,25.9
2018-08-18T09:21:10.351Z,25.9
2018-08-18T09:22:00.373Z,25.9
2018-08-18T09:22:50.169Z,25.9
2018-08-18T09:23:40.496Z,25.9
2018-08-18T09:24:30.001Z,25.9
2018-08-18T09:25:20.685Z,25.9
2018-08-18T09:26:10.824Z,25.9
2018-08-18T09:27:00.758Z,25.9
2018-08-18T09:27:50.823Z,25.9
2018-08-18T09:28:40.902Z,25.9
2018-08-18T09:29:30.951Z,25.9
2018-08-18T09:30:21.024Z,25.9
2018-08-18T09:31:11.095Z,25.9
2018-08-18T09:32:01.149Z,25.9
2018-08-18T09:32:51.219Z,25.9
2018-08-18T09:33:41.281Z,25.9
2018-08-18T09:34:31.359Z,25.9
2018-08-18T09:35:21.142Z,25.9
2018-08-18T09:36:11.646Z,25.9
2018-08-18T09:37:01.554Z,25.9
2018-08-18T09:37:51.623Z,25.9
2018-08-18T09:38:41.407Z,25.9
2018-08-18T09:39:31.743Z,25.9
2018-08-18T09:40:21.807Z,25.9
2018-08-18T09:41:11.880Z,25.9
2018-08-18T09:42:01.949Z,25.9
2018-08-18T09:42:52.005Z,25.9
2018-08-18T09:43:42.077Z,25.9
2018-08-18T09:44:32.139Z,25.9
2018-08-18T09:45:22.318Z,25.9
2018-08-18T09:46:12.004Z,25.9
2018-08-18T09:47:02.342Z,25.9
2018-08-18T09:47:52.395Z,25.9
2018-08-18T09:48:42.464Z,25.9
2018-08-18T09:49:32.515Z,25.9
2018-08-18T09:50:22.577Z,25.9
2018-08-18T09:51:12.640Z,25.9
2018-08-18T09:52:02.705Z,25.9
2018-08-18T09:52:52.778Z,25.9
2018-08-18T09:53:42.563Z,25.9
2018-08-18T09:54:32.905Z,25.9
2018-08-18T09:55:22.975Z,25.9
2018-08-18T09:56:12.760Z,25.9
2018-08-18T09:57:03.169Z,25.9
2018-08-18T09:57:53.175Z,25.9
2018-08-18T09:58:43.319Z,25.9
2018-08-18T09:59:33.304Z,25.9
2018-08-18T10:00:23.359Z,25.9
2018-08-18T10:01:13.146Z,25.9
2018-08-18T10:02:03.493Z,26
2018-08-18T10:02:53.577Z,25.9
2018-08-18T10:03:43.361Z,25.9
2018-08-18T10:04:33.696Z,25.9
2018-08-18T10:05:23.760Z,25.9
2018-08-18T10:06:13.852Z,25.9
2018-08-18T10:07:03.897Z,25.9
2018-08-18T10:07:53.986Z,25.9
2018-08-18T10:08:44.021Z,25.9
2018-08-18T10:09:34.083Z,25.9
2018-08-18T10:10:24.166Z,25.9
2018-08-18T10:11:14.232Z,25.9
2018-08-18T10:12:04.329Z,25.9
2018-08-18T10:12:54.368Z,25.9
2018-08-18T10:13:44.419Z,25.9
2018-08-18T10:14:34.473Z,25.9
2018-08-18T10:15:24.108Z,25.9
2018-08-18T10:16:14.624Z,25.9
2018-08-18T10:17:04.676Z,25.9
2018-08-18T10:17:54.474Z,25.9
2018-08-18T10:18:44.815Z,25.9
2018-08-18T10:19:34.312Z,25.9
2018-08-18T10:20:24.660Z,25.9
2018-08-18T10:21:15.001Z,25.9
2018-08-18T10:22:04.505Z,25.9
2018-08-18T10:22:55.140Z,25.9
2018-08-18T10:23:45.246Z,25.9
2018-08-18T10:24:35.242Z,25.9
2018-08-18T10:25:25.315Z,25.9
2018-08-18T10:26:15.107Z,25.9
2018-08-18T10:27:05.445Z,25.9
2018-08-18T10:27:55.512Z,25.9
2018-08-18T10:28:45.312Z,25.9
2018-08-18T10:29:35.644Z,25.9
2018-08-18T10:30:25.428Z,25.9
2018-08-18T10:31:15.493Z,25.9
2018-08-18T10:32:05.562Z,25.9
2018-08-18T10:32:55.924Z,25.9
2018-08-18T10:33:45.972Z,25.9
2018-08-18T10:34:36.031Z,25.9
2018-08-18T10:35:26.102Z,25.9
2018-08-18T10:36:16.171Z,25.9
2018-08-18T10:37:05.948Z,25.9
2018-08-18T10:37:56.319Z,25.9
2018-08-18T10:38:46.086Z,25.9
2018-08-18T10:39:36.147Z,25.9
2018-08-18T10:40:26.492Z,25.9
2018-08-18T10:41:16.559Z,25.9
2018-08-18T10:42:06.887Z,25.9
2018-08-18T10:42:56.707Z,25.9
2018-08-18T10:43:46.835Z,25.9
2018-08-18T10:44:36.847Z,25.9
2018-08-18T10:45:26.893Z,25.9
2018-08-18T10:46:16.971Z,25.9
2018-08-18T10:47:07.023Z,25.9
2018-08-18T10:47:57.094Z,25.9
2018-08-18T10:48:47.170Z,25.9
2018-08-18T10:49:37.230Z,25.9
2018-08-18T10:50:27.286Z,25.9
2018-08-18T10:51:17.069Z,25.9
2018-08-18T10:52:07.424Z,25.9
2018-08-18T10:52:57.483Z,25.9
2018-08-18T10:53:47.566Z,25.9
2018-08-18T10:54:37.620Z,25.9
2018-08-18T10:55:27.695Z,25.9
2018-08-18T10:56:17.742Z,25.9
2018-08-18T10:57:07.821Z,25.9
2018-08-18T10:57:57.604Z,25.9
2018-08-18T10:58:47.956Z,25.9
2018-08-18T10:59:38.049Z,25.9
2018-08-18T11:00:28.055Z,25.9
2018-08-18T11:01:18.125Z,25.9
2018-08-18T11:02:08.206Z,25.9
2018-08-18T11:02:58.253Z,25.9
2018-08-18T11:03:48.460Z,25.9
2018-08-18T11:04:38.382Z,25.9
2018-08-18T11:05:28.179Z,25.9
2018-08-18T11:06:18.534Z,25.9
2018-08-18T11:07:08.300Z,25.9
2018-08-18T11:07:58.646Z,25.9
2018-08-18T11:08:48.714Z,25.9
2018-08-18T11:09:38.778Z,25.9
2018-08-18T11:10:28.848Z,25.9
2018-08-18T11:11:18.632Z,25.9
2018-08-18T11:12:08.696Z,25.9
2018-08-18T11:12:59.043Z,25.9
2018-08-18T11:13:49.105Z,25.9
2018-08-18T11:14:39.173Z,25.9
2018-08-18T11:15:28.978Z,25.9
2018-08-18T11:16:19.025Z,25.9
2018-08-18T11:17:09.097Z,25.9
2018-08-18T11:17:59.467Z,25.9
2018-08-18T11:18:49.510Z,25.9
2018-08-18T11:19:39.595Z,25.9
2018-08-18T11:20:29.643Z,25.9
2018-08-18T11:21:19.718Z,25.9
2018-08-18T11:22:09.502Z,25.9
2018-08-18T11:22:59.857Z,25.9
2018-08-18T11:23:49.910Z,25.9
2018-08-18T11:24:39.967Z,25.9
2018-08-18T11:25:29.752Z,25.9
2018-08-18T11:26:20.114Z,25.9
2018-08-18T11:27:10.168Z,25.9
2018-08-18T11:27:59.954Z,25.9
2018-08-18T11:28:50.167Z,25.9
2018-08-18T11:29:40.358Z,25.9
2018-08-18T11:30:30.438Z,25.9
2018-08-18T11:31:20.494Z,25.9
2018-08-18T11:32:10.555Z,25.9
2018-08-18T11:33:00.618Z,25.9
2018-08-18T11:33:50.687Z,25.9
2018-08-18T11:34:40.756Z,25.9
2018-08-18T11:35:30.812Z,25.9
2018-08-18T11:36:20.893Z,25.9
2018-08-18T11:37:10.944Z,25.9
2018-08-18T11:38:01.023Z,25.9
2018-08-18T11:38:50.805Z,25.9
2018-08-18T11:39:41.138Z,25.9
2018-08-18T11:40:31.201Z,25.9
2018-08-18T11:41:21.272Z,25.9
2018-08-18T11:42:11.052Z,25.9
2018-08-18T11:43:01.401Z,25.9
2018-08-18T11:43:51.487Z,25.9
2018-08-18T11:44:41.525Z,25.9
2018-08-18T11:45:31.643Z,25.9
2018-08-18T11:46:21.673Z,25.9
2018-08-18T11:47:11.535Z,25.9
2018-08-18T11:48:01.791Z,25.9
2018-08-18T11:48:51.867Z,25.9
2018-08-18T11:49:41.652Z,25.9
2018-08-18T11:50:31.988Z,25.9
2018-08-18T11:51:21.776Z,25.9
2018-08-18T11:52:12.113Z,25.9
2018-08-18T11:53:02.194Z,25.9
2018-08-18T11:53:52.263Z,25.9
2018-08-18T11:54:42.059Z,25.9
2018-08-18T11:55:32.383Z,25.9
2018-08-18T11:56:22.465Z,25.9
2018-08-18T11:57:12.521Z,25.9